Time;durP1;ratioP1;P1;durP2;ratioP2;P2;SDS_P1;SDS_P2;PMS_P1;PMS_P2;Temp;Humidity;BMP_temperature;BMP_pressure;BME280_temperature;BME280_humidity;BME280_pressure;Samples;Min_cycle;Max_cycle;Signal;HPM_P1;HPM_P2
2024/01/08 00:01:39;;;;;;;20.73;9.67;;;;;;;;;;4999732;28;20084;-56
2024/01/08 00:04:31;;;;;;;19.13;7.90;;;;;;;;;;4999852;28;20058;-55
2024/01/08 00:07:19;;;;;;;16.00;7.93;;;;;;;;;;5002115;28;20053;-55
2024/01/08 00:10:12;;;;;;;15.63;7.60;;;;;;;;;;4999051;28;20050;-56
2024/01/08 00:13:00;;;;;;;16.53;7.57;;;;;;;;;;5003551;28;20054;-56
2024/01/08 00:15:53;;;;;;;16.60;7.70;;;;;;;;;;5000078;28;20054;-53
2024/01/08 00:18:44;;;;;;;13.40;6.77;;;;;;;;;;5003234;28;20054;-57
2024/01/08 00:21:39;;;;;;;14.77;8.40;;;;;;;;;;4989909;28;20061;-57
2024/01/08 00:24:26;;;;;;;15.50;7.33;;;;;;;;;;4995778;28;20053;-62
2024/01/08 00:27:26;;;;;;;18.27;7.37;;;;;;;;;;4996920;28;20056;-62
2024/01/08 00:30:14;;;;;;;18.47;8.27;;;;;;;;;;4994793;28;20433;-62
2024/01/08 00:33:09;;;;;;;26.77;8.37;;;;;;;;;;4987736;28;20060;-60
2024/01/08 00:35:37;;;;;;;14.47;7.63;;;;;;;;;;4997735;28;20683;-59
2024/01/08 00:38:10;;;;;;;19.37;8.20;;;;;;;;;;4996668;28;20077;-60
2024/01/08 00:40:38;;;;;;;18.10;7.93;;;;;;;;;;4996043;28;20062;-60
2024/01/08 00:43:05;;;;;;;18.83;8.07;;;;;;;;;;4998829;28;20050;-67
2024/01/08 00:45:40;;;;;;;21.83;7.67;;;;;;;;;;5002757;28;20050;-67
2024/01/08 00:48:07;;;;;;;21.17;8.50;;;;;;;;;;4996324;28;20351;-67
2024/01/08 00:50:41;;;;;;;25.43;8.77;;;;;;;;;;4997016;28;20056;-67
2024/01/08 00:53:09;;;;;;;22.27;8.80;;;;;;;;;;5002625;28;20050;-67
2024/01/08 00:55:36;;;;;;;18.93;8.37;;;;;;;;;;4993606;28;20544;-65
2024/01/08 00:58:10;;;;;;;23.77;8.80;;;;;;;;;;5002301;28;20674;-51
2024/01/08 01:00:37;;;;;;;18.87;8.93;;;;;;;;;;4998808;28;20062;-51
2024/01/08 01:03:11;;;;;;;14.27;7.00;;;;;;;;;;4998966;28;20056;-54
2024/01/08 01:05:38;;;;;;;16.77;7.90;;;;;;;;;;5003524;28;20049;-52
2024/01/08 01:08:06;;;;;;;17.27;8.03;;;;;;;;;;5004951;28;20703;-62
2024/01/08 01:10:40;;;;;;;19.03;8.27;;;;;;;;;;5007441;28;20054;-63
2024/01/08 01:13:07;;;;;;;27.93;7.73;;;;;;;;;;5006536;28;20050;-63
2024/01/08 01:15:41;;;;;;;18.63;7.90;;;;;;;;;;5007275;28;20151;-62
2024/01/08 01:18:08;;;;;;;18.73;8.53;;;;;;;;;;5003856;28;20069;-62
2024/01/08 01:20:35;;;;;;;29.73;10.10;;;;;;;;;;5006052;28;20050;-63
2024/01/08 01:23:10;;;;;;;89.60;12.97;;;;;;;;;;5002156;28;20116;-63
2024/01/08 01:25:37;;;;;;;20.20;10.33;;;;;;;;;;5007665;28;20063;-63
2024/01/08 01:28:18;;;;;;;23.83;10.57;;;;;;;;;;5004244;28;20054;-62
2024/01/08 01:30:45;;;;;;;24.30;10.77;;;;;;;;;;5003757;28;20406;-62
2024/01/08 01:33:20;;;;;;;21.27;9.43;;;;;;;;;;5002771;28;20070;-63
2024/01/08 01:35:53;;;;;;;24.10;10.10;;;;;;;;;;5005498;28;20046;-62
2024/01/08 01:38:28;;;;;;;23.57;11.00;;;;;;;;;;5005018;28;20062;-61
2024/01/08 01:40:55;;;;;;;20.73;9.93;;;;;;;;;;4999756;28;20421;-62
2024/01/08 01:43:29;;;;;;;24.23;11.27;;;;;;;;;;4996153;28;20053;-62
2024/01/08 01:45:57;;;;;;;32.87;8.70;;;;;;;;;;5002572;28;20060;-59
2024/01/08 01:48:27;;;;;;;22.10;9.37;;;;;;;;;;4996423;28;20058;-62
2024/01/08 01:51:02;;;;;;;16.70;8.47;;;;;;;;;;5003247;28;20057;-62
2024/01/08 01:53:49;;;;;;;14.77;6.93;;;;;;;;;;5004059;28;22468;-63
2024/01/08 01:56:49;;;;;;;22.53;8.47;;;;;;;;;;5003939;28;20058;-63
2024/01/08 01:59:43;;;;;;;18.37;8.30;;;;;;;;;;5003679;28;20509;-63
2024/01/08 02:02:31;;;;;;;11.73;6.70;;;;;;;;;;5000911;28;20480;-63
2024/01/08 02:05:25;;;;;;;17.23;8.20;;;;;;;;;;5002025;28;20054;-59
2024/01/08 02:08:13;;;;;;;11.70;6.00;;;;;;;;;;5004815;28;20053;-63
2024/01/08 02:11:06;;;;;;;17.87;8.73;;;;;;;;;;5000098;28;20046;-63
2024/01/08 02:13:54;;;;;;;13.40;6.03;;;;;;;;;;4999706;28;20068;-63
2024/01/08 02:16:48;;;;;;;17.67;8.47;;;;;;;;;;4999328;28;20054;-63
2024/01/08 02:19:42;;;;;;;23.03;8.10;;;;;;;;;;5000754;28;20048;-63
2024/01/08 02:22:29;;;;;;;15.10;6.68;;;;;;;;;;5001656;28;20093;-63
2024/01/08 02:25:24;;;;;;;17.70;8.57;;;;;;;;;;5001330;28;20061;-62
2024/01/08 02:28:18;;;;;;;26.05;9.93;;;;;;;;;;4973337;28;20066;-62
2024/01/08 02:31:13;;;;;;;14.73;7.60;;;;;;;;;;4977553;28;20125;-63
2024/01/08 02:34:00;;;;;;;14.65;7.72;;;;;;;;;;4976786;28;20058;-63
2024/01/08 02:36:54;;;;;;;17.33;7.77;;;;;;;;;;4980157;28;20051;-62
2024/01/08 02:39:41;;;;;;;15.70;8.23;;;;;;;;;;4966865;28;20478;-62
2024/01/08 02:42:41;;;;;;;18.43;8.43;;;;;;;;;;4976326;28;20085;-62
2024/01/08 02:45:31;;;;;;;15.77;7.60;;;;;;;;;;4976400;28;20058;-60
2024/01/08 02:48:23;;;;;;;15.57;7.73;;;;;;;;;;4980163;28;20474;-62
2024/01/08 02:51:10;;;;;;;17.40;8.10;;;;;;;;;;4983906;28;20644;-62
2024/01/08 02:54:04;;;;;;;16.67;7.13;;;;;;;;;;4980649;28;20163;-63
2024/01/08 02:56:51;;;;;;;15.50;8.18;;;;;;;;;;4976529;28;20164;-63
2024/01/08 02:59:44;;;;;;;18.23;8.00;;;;;;;;;;4979057;28;20101;-63
2024/01/08 03:02:32;;;;;;;21.15;8.55;;;;;;;;;;4981484;28;20149;-56
2024/01/08 03:05:26;;;;;;;16.77;7.73;;;;;;;;;;4981612;28;20066;-63
2024/01/08 03:08:13;;;;;;;14.37;5.73;;;;;;;;;;4977937;28;20054;-61
2024/01/08 03:11:07;;;;;;;36.30;8.83;;;;;;;;;;4980412;28;20057;-62
2024/01/08 03:13:54;;;;;;;16.93;8.50;;;;;;;;;;4976525;28;20055;-63
2024/01/08 03:16:48;;;;;;;23.30;9.40;;;;;;;;;;4980967;28;20691;-63
2024/01/08 03:19:35;;;;;;;19.47;7.97;;;;;;;;;;4979873;28;20517;-58
2024/01/08 03:22:29;;;;;;;17.10;7.63;;;;;;;;;;4976948;28;20342;-59
2024/01/08 03:25:16;;;;;;;18.00;8.50;;;;;;;;;;4980300;28;20141;-63
2024/01/08 03:28:16;;;;;;;14.80;7.23;;;;;;;;;;4998369;28;20108;-63
2024/01/08 03:31:03;;;;;;;24.17;8.37;;;;;;;;;;5000262;28;20486;-63
2024/01/08 03:33:57;;;;;;;82.10;10.47;;;;;;;;;;4997193;28;20072;-63
2024/01/08 03:36:48;;;;;;;20.37;8.90;;;;;;;;;;4998844;28;20050;-62
2024/01/08 03:39:49;;;;;;;20.13;9.07;;;;;;;;;;5000625;28;20078;-52
2024/01/08 03:42:36;;;;;;;20.17;8.93;;;;;;;;;;5001064;28;20061;-52
2024/01/08 03:45:31;;;;;;;19.13;9.07;;;;;;;;;;4999974;28;20070;-50
2024/01/08 03:48:18;;;;;;;24.87;9.27;;;;;;;;;;4997744;28;20054;-63
2024/01/08 03:51:12;;;;;;;20.43;9.50;;;;;;;;;;4999989;28;20104;-51
2024/01/08 03:53:59;;;;;;;17.67;8.32;;;;;;;;;;5000593;28;20150;-57
2024/01/08 03:56:53;;;;;;;22.27;9.67;;;;;;;;;;5001409;28;20131;-56
2024/01/08 03:59:41;;;;;;;20.33;9.10;;;;;;;;;;5000557;28;20061;-56
2024/01/08 04:02:35;;;;;;;91.00;11.50;;;;;;;;;;5001550;28;20061;-58
2024/01/08 04:05:22;;;;;;;31.80;9.47;;;;;;;;;;4998383;28;20069;-56
2024/01/08 04:08:16;;;;;;;44.90;9.23;;;;;;;;;;5000898;28;20053;-63
2024/01/08 04:11:03;;;;;;;28.07;9.90;;;;;;;;;;4999218;28;20951;-63
2024/01/08 04:13:57;;;;;;;30.67;9.63;;;;;;;;;;4996206;28;20054;-63
2024/01/08 04:16:50;;;;;;;40.00;9.30;;;;;;;;;;5000425;28;20053;-58
2024/01/08 04:19:45;;;;;;;22.90;9.70;;;;;;;;;;4998476;28;20136;-63
2024/01/08 04:22:32;;;;;;;16.57;7.13;;;;;;;;;;5000061;28;20143;-63
2024/01/08 04:25:26;;;;;;;41.03;10.07;;;;;;;;;;5000171;28;20065;-63
2024/01/08 04:28:21;;;;;;;19.43;8.33;;;;;;;;;;5001557;28;20057;-63
2024/01/08 04:31:20;;;;;;;27.53;8.87;;;;;;;;;;4998149;28;20049;-63
2024/01/08 04:34:09;;;;;;;25.03;8.63;;;;;;;;;;5000008;28;20116;-63
2024/01/08 04:37:02;;;;;;;30.43;9.13;;;;;;;;;;4999443;28;20054;-55
2024/01/08 04:39:49;;;;;;;27.58;7.07;;;;;;;;;;5001505;28;20053;-54
2024/01/08 04:42:43;;;;;;;66.53;11.00;;;;;;;;;;4995847;28;20045;-58
2024/01/08 04:45:30;;;;;;;16.00;8.27;;;;;;;;;;5000955;28;20051;-54
2024/01/08 04:48:24;;;;;;;35.30;9.77;;;;;;;;;;4998912;28;20054;-62
2024/01/08 04:51:22;;;;;;;18.17;8.50;;;;;;;;;;4996676;28;20054;-61
2024/01/08 04:54:16;;;;;;;17.10;8.10;;;;;;;;;;4996039;28;20065;-61
2024/01/08 04:57:03;;;;;;;11.80;6.13;;;;;;;;;;4996219;28;20050;-62
2024/01/08 04:59:57;;;;;;;44.00;7.77;;;;;;;;;;4997079;28;20050;-61
2024/01/08 05:02:44;;;;;;;12.80;4.37;;;;;;;;;;4998965;28;20060;-62
2024/01/08 05:05:40;;;;;;;10.80;5.87;;;;;;;;;;5000880;28;20376;-68
2024/01/08 05:08:27;;;;;;;10.03;6.30;;;;;;;;;;5001056;28;20053;-67
2024/01/08 05:11:20;;;;;;;10.77;5.23;;;;;;;;;;4999483;28;20460;-68
2024/01/08 05:14:10;;;;;;;12.10;5.27;;;;;;;;;;5000429;28;20068;-68
2024/01/08 05:17:05;;;;;;;14.53;6.47;;;;;;;;;;5000169;28;20158;-63
2024/01/08 05:19:53;;;;;;;10.45;4.10;;;;;;;;;;4998248;28;20133;-63
2024/01/08 05:22:46;;;;;;;12.80;5.83;;;;;;;;;;4991580;28;20061;-63
2024/01/08 05:25:34;;;;;;;10.00;4.70;;;;;;;;;;4994591;28;20142;-63
2024/01/08 05:28:34;;;;;;;13.33;6.13;;;;;;;;;;4972813;28;20066;-62
2024/01/08 05:31:30;;;;;;;10.33;5.87;;;;;;;;;;4983541;28;20498;-63
2024/01/08 05:34:18;;;;;;;9.82;4.30;;;;;;;;;;4980649;28;20410;-62
2024/01/08 05:37:12;;;;;;;10.37;4.87;;;;;;;;;;4979457;28;20395;-62
2024/01/08 05:39:59;;;;;;;12.60;5.53;;;;;;;;;;4979776;28;20043;-64
2024/01/08 05:42:52;;;;;;;11.83;5.60;;;;;;;;;;4979882;28;20465;-62
2024/01/08 05:45:41;;;;;;;8.13;4.30;;;;;;;;;;4982268;28;20142;-62
2024/01/08 05:48:37;;;;;;;13.97;5.73;;;;;;;;;;4979202;28;20074;-64
2024/01/08 05:51:28;;;;;;;15.60;6.23;;;;;;;;;;4978180;28;23653;-63
2024/01/08 05:54:22;;;;;;;19.80;7.33;;;;;;;;;;4982489;28;20046;-62
2024/01/08 05:57:10;;;;;;;14.60;6.97;;;;;;;;;;4976301;28;20109;-61
2024/01/08 06:00:04;;;;;;;17.17;6.87;;;;;;;;;;4973060;28;20393;-63
2024/01/08 06:02:51;;;;;;;12.07;5.88;;;;;;;;;;4978362;28;20059;-62
2024/01/08 06:05:44;;;;;;;19.00;6.77;;;;;;;;;;4985046;28;20457;-63
2024/01/08 06:08:32;;;;;;;40.28;7.38;;;;;;;;;;4984723;28;20453;-61
2024/01/08 06:11:25;;;;;;;14.67;6.10;;;;;;;;;;4987815;28;20056;-61
2024/01/08 06:14:13;;;;;;;27.53;5.97;;;;;;;;;;4984032;28;20100;-61
2024/01/08 06:17:07;;;;;;;25.00;7.50;;;;;;;;;;4987082;28;20319;-61
2024/01/08 06:19:54;;;;;;;11.10;5.20;;;;;;;;;;4984859;28;20174;-61
2024/01/08 06:22:47;;;;;;;10.17;5.33;;;;;;;;;;4985417;28;20078;-61
2024/01/08 06:25:35;;;;;;;12.68;5.47;;;;;;;;;;4985949;28;20565;-61
2024/01/08 06:28:35;;;;;;;26.70;5.60;;;;;;;;;;5002423;28;20061;-60
2024/01/08 06:31:23;;;;;;;17.93;6.20;;;;;;;;;;5003205;28;20053;-54
2024/01/08 06:34:16;;;;;;;9.97;5.20;;;;;;;;;;5004432;28;20054;-63
2024/01/08 06:37:04;;;;;;;17.67;6.35;;;;;;;;;;5003062;28;20053;-63
2024/01/08 06:39:57;;;;;;;11.90;4.90;;;;;;;;;;5004553;28;20501;-63
2024/01/08 06:42:47;;;;;;;13.60;5.57;;;;;;;;;;5003713;28;20057;-63
2024/01/08 06:45:41;;;;;;;10.67;5.40;;;;;;;;;;5003455;28;20060;-63
2024/01/08 06:48:29;;;;;;;11.57;5.20;;;;;;;;;;5004426;28;20120;-69
2024/01/08 06:51:23;;;;;;;9.57;4.10;;;;;;;;;;5003132;28;20065;-69
2024/01/08 06:54:10;;;;;;;7.80;4.67;;;;;;;;;;5002147;28;20781;-69
2024/01/08 06:57:03;;;;;;;9.07;4.43;;;;;;;;;;5004457;28;20127;-55
2024/01/08 06:59:51;;;;;;;7.60;4.17;;;;;;;;;;5000741;28;20054;-62
2024/01/08 07:02:44;;;;;;;9.10;4.10;;;;;;;;;;5002788;28;20054;-68
2024/01/08 07:05:32;;;;;;;7.37;3.90;;;;;;;;;;5003338;28;20065;-69
2024/01/08 07:08:25;;;;;;;8.50;4.43;;;;;;;;;;4999069;28;20305;-68
2024/01/08 07:11:23;;;;;;;8.93;3.90;;;;;;;;;;5003585;28;20480;-69
2024/01/08 07:14:10;;;;;;;8.23;3.70;;;;;;;;;;5003274;28;20425;-69
2024/01/08 07:17:05;;;;;;;5.57;2.93;;;;;;;;;;5003506;28;20501;-62
2024/01/08 07:19:52;;;;;;;5.95;3.28;;;;;;;;;;5004159;28;20062;-62
2024/01/08 07:22:46;;;;;;;5.33;3.40;;;;;;;;;;4996634;28;20600;-62
2024/01/08 07:25:35;;;;;;;5.65;3.28;;;;;;;;;;5002783;28;20057;-60
2024/01/08 07:28:36;;;;;;;7.20;3.67;;;;;;;;;;5001464;28;20054;-62
2024/01/08 07:31:22;;;;;;;5.20;3.63;;;;;;;;;;5002201;28;20053;-63
2024/01/08 07:34:19;;;;;;;7.67;3.67;;;;;;;;;;5002524;28;20156;-60
2024/01/08 07:37:04;;;;;;;8.17;3.77;;;;;;;;;;5002182;28;20056;-60
2024/01/08 07:39:59;;;;;;;6.43;3.30;;;;;;;;;;5002148;28;20359;-60
2024/01/08 07:42:46;;;;;;;7.27;4.03;;;;;;;;;;4997697;28;20061;-59
2024/01/08 07:45:40;;;;;;;7.27;3.77;;;;;;;;;;5004522;28;20529;-67
2024/01/08 07:48:33;;;;;;;7.60;4.13;;;;;;;;;;5002373;28;20444;-67
2024/01/08 07:51:28;;;;;;;7.33;4.20;;;;;;;;;;5000167;28;20054;-66
2024/01/08 07:54:15;;;;;;;9.23;4.57;;;;;;;;;;5000798;28;20132;-62
2024/01/08 07:57:09;;;;;;;9.20;4.40;;;;;;;;;;5002895;28;20145;-59
2024/01/08 07:59:59;;;;;;;10.60;4.87;;;;;;;;;;5002538;28;20058;-53
2024/01/08 08:02:53;;;;;;;8.53;4.40;;;;;;;;;;5002053;28;20073;-57
2024/01/08 08:05:40;;;;;;;8.65;4.53;;;;;;;;;;5001933;28;20070;-54
2024/01/08 08:08:34;;;;;;;8.60;3.87;;;;;;;;;;5002682;28;20193;-56
2024/01/08 08:11:21;;;;;;;6.77;3.70;;;;;;;;;;5000449;28;20049;-54
2024/01/08 08:14:16;;;;;;;11.53;5.20;;;;;;;;;;5003014;28;20049;-52
2024/01/08 08:17:03;;;;;;;11.40;4.90;;;;;;;;;;4999878;28;20054;-49
2024/01/08 08:19:58;;;;;;;26.33;6.53;;;;;;;;;;5000087;28;20050;-54
2024/01/08 08:22:45;;;;;;;10.18;5.57;;;;;;;;;;4997720;28;20049;-49
2024/01/08 08:25:41;;;;;;;42.53;7.43;;;;;;;;;;4999775;28;20050;-56
2024/01/08 08:28:28;;;;;;;;;;;;;;;;;;4994361;28;20058;-60
2024/01/08 08:31:28;;;;;;;13.60;6.10;;;;;;;;;;4998485;28;19935;-61
2024/01/08 08:34:15;;;;;;;18.83;6.20;;;;;;;;;;4999288;28;20135;-60
2024/01/08 08:37:10;;;;;;;27.03;6.27;;;;;;;;;;5000068;28;20555;-60
2024/01/08 08:40:18;;;;;;;36.53;7.03;;;;;;;;;;4995148;28;20141;-63
2024/01/08 08:43:13;;;;;;;62.77;7.87;;;;;;;;;;5000661;28;20046;-58
2024/01/08 08:46:06;;;;;;;53.53;7.40;;;;;;;;;;4992610;28;20053;-60
2024/01/08 08:49:01;;;;;;;16.77;5.80;;;;;;;;;;5000420;28;20077;-58
2024/01/08 08:51:57;;;;;;;20.20;6.57;;;;;;;;;;5001118;28;20156;-57
2024/01/08 08:54:45;;;;;;;37.10;8.27;;;;;;;;;;5001064;28;20062;-63
2024/01/08 08:57:39;;;;;;;56.40;9.57;;;;;;;;;;5001168;28;20050;-63
2024/01/08 09:00:26;;;;;;;47.92;7.93;;;;;;;;;;5001292;28;20120;-60
2024/01/08 09:03:20;;;;;;;38.83;6.83;;;;;;;;;;5001115;28;20062;-62
2024/01/08 09:06:08;;;;;;;27.00;6.03;;;;;;;;;;5002480;28;20116;-62
2024/01/08 09:09:02;;;;;;;64.07;7.70;;;;;;;;;;5003178;28;20046;-62
2024/01/08 09:11:49;;;;;;;89.30;8.73;;;;;;;;;;5000140;28;20054;-62
2024/01/08 09:14:43;;;;;;;82.03;9.43;;;;;;;;;;5001269;28;20060;-62
2024/01/08 09:17:32;;;;;;;22.50;5.88;;;;;;;;;;5000882;28;20549;-62
2024/01/08 09:20:24;;;;;;;62.33;8.37;;;;;;;;;;4998454;28;20053;-54
2024/01/08 09:23:11;;;;;;;46.08;8.80;;;;;;;;;;5000543;28;20107;-62
2024/01/08 09:26:05;;;;;;;30.33;8.73;;;;;;;;;;5002458;28;20053;-62
2024/01/08 09:28:59;;;;;;;34.47;7.00;;;;;;;;;;5004865;28;20691;-62
2024/01/08 09:31:53;;;;;;;109.33;8.70;;;;;;;;;;5003144;28;20417;-63
2024/01/08 09:34:41;;;;;;;62.73;10.43;;;;;;;;;;5004990;28;20152;-63
2024/01/08 09:37:35;;;;;;;58.63;8.93;;;;;;;;;;5004142;28;20108;-62
2024/01/08 09:40:22;;;;;;;17.90;5.83;;;;;;;;;;5000282;28;20049;-49
2024/01/08 09:43:16;;;;;;;38.23;7.70;;;;;;;;;;5006086;28;20378;-53
2024/01/08 09:46:14;;;;;;;40.07;7.73;;;;;;;;;;5006098;28;20053;-50
2024/01/08 09:49:03;;;;;;;15.77;6.67;;;;;;;;;;5002939;28;20584;-54
2024/01/08 09:51:56;;;;;;;54.13;9.10;;;;;;;;;;5005867;28;20132;-62
2024/01/08 09:54:43;;;;;;;61.57;9.93;;;;;;;;;;5005601;28;20057;-62
2024/01/08 09:57:37;;;;;;;29.13;8.23;;;;;;;;;;5004158;28;20465;-61
2024/01/08 10:00:24;;;;;;;29.63;8.57;;;;;;;;;;5002958;28;20054;-62
2024/01/08 10:03:19;;;;;;;31.13;8.40;;;;;;;;;;5002031;28;20077;-61
2024/01/08 10:06:10;;;;;;;37.55;9.48;;;;;;;;;;5003373;28;20054;-62
2024/01/08 10:09:04;;;;;;;57.63;10.07;;;;;;;;;;5004929;28;20069;-63
2024/01/08 10:11:51;;;;;;;28.87;8.47;;;;;;;;;;5003408;28;20062;-63
2024/01/08 10:14:45;;;;;;;158.70;12.47;;;;;;;;;;5006410;28;20046;-63
2024/01/08 10:17:32;;;;;;;39.08;8.32;;;;;;;;;;4999775;28;20592;-59
2024/01/08 10:20:26;;;;;;;45.60;9.53;;;;;;;;;;5005575;28;20045;-62
2024/01/08 10:23:16;;;;;;;17.10;6.30;;;;;;;;;;5003255;28;20058;-63
2024/01/08 10:26:12;;;;;;;20.30;7.93;;;;;;;;;;5001323;28;20175;-61
2024/01/08 10:29:10;;;;;;;21.48;8.70;;;;;;;;;;5004562;28;20064;-62
2024/01/08 10:32:05;;;;;;;21.63;8.57;;;;;;;;;;5000725;28;20065;-62
2024/01/08 10:34:52;;;;;;;23.42;8.07;;;;;;;;;;5003567;28;20054;-58
2024/01/08 10:37:49;;;;;;;20.97;9.07;;;;;;;;;;5005266;28;20461;-57
2024/01/08 10:40:35;;;;;;;19.53;9.13;;;;;;;;;;4999020;28;20141;-58
2024/01/08 10:43:29;;;;;;;22.83;9.37;;;;;;;;;;5001607;28;20145;-57
2024/01/08 10:46:17;;;;;;;22.57;9.13;;;;;;;;;;5003668;28;20498;-70
2024/01/08 10:49:15;;;;;;;19.77;7.83;;;;;;;;;;5001965;28;20521;-60
2024/01/08 10:52:23;;;;;;;17.87;8.20;;;;;;;;;;5002096;28;20060;-60
2024/01/08 10:55:17;;;;;;;18.40;9.03;;;;;;;;;;5004538;28;20058;-60
2024/01/08 10:58:05;;;;;;;19.52;8.70;;;;;;;;;;5003460;28;20081;-57
2024/01/08 11:00:59;;;;;;;17.93;7.97;;;;;;;;;;5003189;28;20112;-60
2024/01/08 11:03:46;;;;;;;17.50;8.33;;;;;;;;;;5002607;28;20054;-63
2024/01/08 11:06:42;;;;;;;16.27;7.27;;;;;;;;;;5003411;28;20500;-62
2024/01/08 11:09:30;;;;;;;16.10;7.57;;;;;;;;;;5005190;28;20369;-62
2024/01/08 11:12:23;;;;;;;18.80;7.77;;;;;;;;;;4998684;28;20045;-63
2024/01/08 11:15:20;;;;;;;20.57;8.10;;;;;;;;;;4999037;28;20104;-62
2024/01/08 11:18:28;;;;;;;18.37;7.17;;;;;;;;;;5003096;28;23739;-63
2024/01/08 11:21:24;;;;;;;18.33;8.23;;;;;;;;;;5000794;28;20444;-63
2024/01/08 11:24:18;;;;;;;17.03;7.80;;;;;;;;;;4991524;28;20132;-63
2024/01/08 11:27:11;;;;;;;17.43;8.37;;;;;;;;;;5002137;28;20064;-63
2024/01/08 11:30:06;;;;;;;16.95;7.60;;;;;;;;;;5002116;28;20057;-63
2024/01/08 11:33:05;;;;;;;11.20;7.03;;;;;;;;;;5001990;28;20144;-60
2024/01/08 11:36:04;;;;;;;12.03;6.70;;;;;;;;;;5003775;28;20046;-60
2024/01/08 11:39:13;;;;;;;13.95;7.85;;;;;;;;;;5001921;28;20050;-60
2024/01/08 11:42:01;;;;;;;16.93;8.70;;;;;;;;;;5000627;28;20694;-59
2024/01/08 11:44:49;;;;;;;17.20;8.55;;;;;;;;;;5000434;28;20548;-62
2024/01/08 11:47:43;;;;;;;18.67;9.60;;;;;;;;;;5001198;28;20046;-62
2024/01/08 11:50:31;;;;;;;13.55;7.15;;;;;;;;;;5002326;28;20486;-63
2024/01/08 11:53:25;;;;;;;18.73;8.05;;;;;;;;;;4996566;28;20057;-61
2024/01/08 11:56:12;;;;;;;15.35;6.55;;;;;;;;;;4999721;28;20053;-60
2024/01/08 11:59:06;;;;;;;12.25;6.78;;;;;;;;;;5000996;28;20069;-63
2024/01/08 12:01:53;;;;;;;11.70;6.35;;;;;;;;;;4999139;28;20053;-68
2024/01/08 12:04:51;;;;;;;15.13;8.30;;;;;;;;;;5001394;28;20053;-68
2024/01/08 12:07:39;;;;;;;17.92;8.88;;;;;;;;;;4998501;28;20046;-68
2024/01/08 12:10:33;;;;;;;20.67;9.88;;;;;;;;;;4999946;28;20083;-51
2024/01/08 12:13:20;;;;;;;15.53;9.13;;;;;;;;;;4998041;28;20053;-62
2024/01/08 12:16:14;;;;;;;18.98;9.85;;;;;;;;;;4999946;28;20056;-61
2024/01/08 12:19:01;;;;;;;17.10;8.40;;;;;;;;;;4999548;28;20060;-61
2024/01/08 12:21:55;;;;;;;12.10;7.53;;;;;;;;;;5002007;28;20046;-61
2024/01/08 12:24:44;;;;;;;13.57;7.60;;;;;;;;;;4999708;28;20058;-61
2024/01/08 12:27:45;;;;;;;16.13;8.05;;;;;;;;;;5000389;28;20100;-61
2024/01/08 12:30:32;;;;;;;14.57;7.22;;;;;;;;;;5000196;28;20643;-58
2024/01/08 12:33:26;;;;;;;14.18;7.57;;;;;;;;;;5000556;28;20066;-58
2024/01/08 12:36:20;;;;;;;17.90;7.75;;;;;;;;;;4999541;28;20081;-60
2024/01/08 12:39:08;;;;;;;14.45;7.95;;;;;;;;;;5001700;28;20145;-63
2024/01/08 12:42:05;;;;;;;14.75;7.97;;;;;;;;;;4994643;28;20150;-56
2024/01/08 12:44:53;;;;;;;15.93;8.07;;;;;;;;;;5002620;28;20343;-56
2024/01/08 12:47:46;;;;;;;16.08;8.85;;;;;;;;;;5001609;28;20072;-57
2024/01/08 12:50:33;;;;;;;14.85;8.10;;;;;;;;;;5001542;28;20056;-54
2024/01/08 12:53:27;;;;;;;14.75;7.93;;;;;;;;;;5001184;28;20520;-55
2024/01/08 12:56:14;;;;;;;14.05;7.63;;;;;;;;;;5002645;28;20085;-57
2024/01/08 12:59:08;;;;;;;13.43;7.53;;;;;;;;;;5004062;28;20045;-63
2024/01/08 13:01:55;;;;;;;17.77;7.70;;;;;;;;;;5006541;28;20537;-61
2024/01/08 13:04:50;;;;;;;16.00;7.60;;;;;;;;;;5007882;28;20125;-61
2024/01/08 13:07:41;;;;;;;14.15;7.70;;;;;;;;;;5008533;28;20772;-62
2024/01/08 13:10:34;;;;;;;14.43;6.85;;;;;;;;;;5007879;28;20465;-62
2024/01/08 13:13:29;;;;;;;16.42;6.55;;;;;;;;;;5007290;28;20077;-62
2024/01/08 13:16:23;;;;;;;14.45;7.32;;;;;;;;;;5008492;28;20057;-61
2024/01/08 13:19:10;;;;;;;15.15;6.80;;;;;;;;;;5005859;28;20058;-62
2024/01/08 13:22:11;;;;;;;14.57;7.95;;;;;;;;;;5007404;28;20128;-62
2024/01/08 13:24:59;;;;;;;12.20;6.80;;;;;;;;;;4997855;28;20135;-62
2024/01/08 13:27:58;;;;;;;16.38;7.15;;;;;;;;;;5007044;28;20112;-59
2024/01/08 13:30:52;;;;;;;12.70;6.97;;;;;;;;;;5005594;28;20053;-59
2024/01/08 13:33:46;;;;;;;12.38;7.20;;;;;;;;;;5008075;28;20050;-58
2024/01/08 13:36:33;;;;;;;13.75;6.82;;;;;;;;;;5008262;28;20060;-62
2024/01/08 13:39:27;;;;;;;15.32;7.25;;;;;;;;;;5005881;28;20053;-55
2024/01/08 13:42:17;;;;;;;13.88;6.85;;;;;;;;;;4992470;28;20104;-54
2024/01/08 13:45:08;;;;;;;14.45;6.80;;;;;;;;;;5005509;28;20794;-53
2024/01/08 13:47:55;;;;;;;10.73;6.22;;;;;;;;;;5003222;28;20445;-55
2024/01/08 13:50:50;;;;;;;12.93;7.25;;;;;;;;;;5005159;28;20449;-57
2024/01/08 13:53:37;;;;;;;10.75;5.90;;;;;;;;;;5003892;28;20590;-54
2024/01/08 13:56:30;;;;;;;12.75;6.35;;;;;;;;;;5007481;28;20088;-51
2024/01/08 13:59:25;;;;;;;13.00;6.72;;;;;;;;;;5006652;28;20872;-50
2024/01/08 14:02:13;;;;;;;12.35;6.55;;;;;;;;;;5006332;28;20053;-50
2024/01/08 14:05:07;;;;;;;9.88;5.22;;;;;;;;;;5005898;28;20056;-67
2024/01/08 14:07:53;;;;;;;9.30;4.75;;;;;;;;;;5005741;28;20081;-49
2024/01/08 14:10:48;;;;;;;9.13;4.85;;;;;;;;;;5002407;28;20585;-53
2024/01/08 14:13:35;;;;;;;9.57;5.07;;;;;;;;;;4992738;28;20498;-56
2024/01/08 14:16:32;;;;;;;11.05;5.18;;;;;;;;;;5003743;28;20064;-53
2024/01/08 14:19:17;;;;;;;10.00;5.05;;;;;;;;;;5002262;28;20050;-57
2024/01/08 14:22:11;;;;;;;8.57;4.88;;;;;;;;;;5000902;28;20516;-53
2024/01/08 14:24:58;;;;;;;11.70;5.30;;;;;;;;;;5003038;28;20089;-48
2024/01/08 14:27:58;;;;;;;14.73;4.95;;;;;;;;;;5002696;28;20080;-47
2024/01/08 14:30:52;;;;;;;9.68;5.25;;;;;;;;;;5002492;28;20058;-53
2024/01/08 14:33:46;;;;;;;8.98;5.50;;;;;;;;;;5003216;28;20072;-61
2024/01/08 14:36:40;;;;;;;10.95;5.25;;;;;;;;;;5000761;28;20050;-62
2024/01/08 14:39:33;;;;;;;9.40;5.13;;;;;;;;;;5001565;28;20061;-60
2024/01/08 14:42:21;;;;;;;8.90;4.93;;;;;;;;;;5001398;28;20184;-60
2024/01/08 14:45:17;;;;;;;7.97;4.93;;;;;;;;;;5002548;28;20057;-61
2024/01/08 14:48:03;;;;;;;9.52;5.20;;;;;;;;;;5001219;28;20050;-61
2024/01/08 14:50:56;;;;;;;10.05;6.18;;;;;;;;;;5003571;28;20076;-62
2024/01/08 14:53:44;;;;;;;13.10;6.25;;;;;;;;;;5007022;28;20176;-62
2024/01/08 14:56:39;;;;;;;10.82;6.07;;;;;;;;;;5003768;28;20054;-62
2024/01/08 14:59:25;;;;;;;10.65;5.93;;;;;;;;;;5000009;28;20064;-62
2024/01/08 15:02:19;;;;;;;11.95;6.25;;;;;;;;;;5002814;28;20568;-62
2024/01/08 15:05:09;;;;;;;10.68;6.15;;;;;;;;;;5002587;28;20053;-61
2024/01/08 15:08:02;;;;;;;13.18;6.53;;;;;;;;;;5002793;28;20460;-62
2024/01/08 15:10:58;;;;;;;12.93;6.93;;;;;;;;;;5004984;28;20537;-62
2024/01/08 15:13:50;;;;;;;14.02;7.00;;;;;;;;;;5001707;28;20054;-62
2024/01/08 15:16:50;;;;;;;15.95;6.95;;;;;;;;;;5002771;28;20050;-61
2024/01/08 15:19:38;;;;;;;14.10;6.57;;;;;;;;;;4999404;28;20072;-56
2024/01/08 15:22:32;;;;;;;11.52;6.90;;;;;;;;;;5002573;28;20061;-56
2024/01/08 15:25:19;;;;;;;10.05;6.43;;;;;;;;;;5001516;28;20233;-57
2024/01/08 15:28:21;;;;;;;12.30;6.65;;;;;;;;;;5001731;28;20050;-57
2024/01/08 15:31:16;;;;;;;13.77;7.43;;;;;;;;;;5004137;28;20054;-62
2024/01/08 15:34:11;;;;;;;13.82;6.68;;;;;;;;;;5002511;28;20050;-61
2024/01/08 15:36:57;;;;;;;12.60;7.45;;;;;;;;;;5001434;28;20137;-62
2024/01/08 15:39:52;;;;;;;12.13;7.32;;;;;;;;;;5000529;28;20417;-62
2024/01/08 15:42:46;;;;;;;14.18;7.43;;;;;;;;;;4997215;28;20053;-61
2024/01/08 15:45:40;;;;;;;15.48;7.00;;;;;;;;;;5000972;28;20058;-59
2024/01/08 15:48:28;;;;;;;13.00;6.82;;;;;;;;;;5002930;28;20481;-61
2024/01/08 15:51:22;;;;;;;17.67;6.63;;;;;;;;;;5003063;28;20506;-61
2024/01/08 15:54:09;;;;;;;9.17;6.67;;;;;;;;;;4997881;28;20056;-60
2024/01/08 15:57:03;;;;;;;11.80;5.90;;;;;;;;;;5001705;28;20379;-61
2024/01/08 15:59:50;;;;;;;15.20;6.30;;;;;;;;;;5003415;28;20057;-66
2024/01/08 16:02:44;;;;;;;14.30;6.72;;;;;;;;;;5000490;28;20058;-61
2024/01/08 16:05:31;;;;;;;11.25;6.22;;;;;;;;;;5000569;28;20569;-61
2024/01/08 16:08:25;;;;;;;10.57;5.80;;;;;;;;;;4996188;28;20060;-61
2024/01/08 16:11:12;;;;;;;9.77;5.57;;;;;;;;;;5003098;28;20549;-60
2024/01/08 16:14:06;;;;;;;10.65;5.75;;;;;;;;;;5000078;28;20050;-61
2024/01/08 16:16:53;;;;;;;9.15;5.28;;;;;;;;;;5001410;28;20528;-58
2024/01/08 16:19:48;;;;;;;8.57;5.90;;;;;;;;;;5001235;28;20690;-60
2024/01/08 16:22:34;;;;;;;11.05;6.45;;;;;;;;;;4994781;28;20530;-62
2024/01/08 16:25:28;;;;;;;10.98;6.10;;;;;;;;;;4996865;28;20123;-62
2024/01/08 16:28:21;;;;;;;12.77;7.47;;;;;;;;;;5000303;28;20065;-59
2024/01/08 16:31:16;;;;;;;23.52;10.32;;;;;;;;;;5003018;28;20591;-68
2024/01/08 16:34:12;;;;;;;17.77;9.15;;;;;;;;;;4998435;28;20077;-67
2024/01/08 16:37:19;;;;;;;19.38;9.25;;;;;;;;;;4998670;28;20058;-68
2024/01/08 16:40:06;;;;;;;15.35;8.93;;;;;;;;;;4992109;28;20096;-67
2024/01/08 16:43:00;;;;;;;31.80;11.18;;;;;;;;;;4999075;28;20041;-67
2024/01/08 16:45:47;;;;;;;22.27;10.00;;;;;;;;;;4999503;28;20057;-61